Time;durP1;ratioP1;P1;durP2;ratioP2;P2;SDS_P1;SDS_P2;PMS_P1;PMS_P2;Temp;Humidity;BMP_temperature;BMP_pressure;BME280_temperature;BME280_humidity;BME280_pressure;Samples;Min_cycle;Max_cycle;Signal;HPM_P1;HPM_P2
2021/08/28 00:02:24;;;;;;;11.40;3.90;;;;;;;13.80;100.00;101893.28;5172121;28;20114;-66
2021/08/28 00:04:56;;;;;;;;;;;;;;;14.16;100.00;101893.84;5175540;28;20022;-66
2021/08/28 00:07:27;;;;;;;10.93;4.88;;;;;;;13.91;100.00;101884.50;5175291;28;19964;-66
2021/08/28 00:09:59;;;;;;;10.98;3.85;;;;;;;13.88;100.00;101883.78;5173711;28;20385;-66
2021/08/28 00:12:30;;;;;;;11.15;4.07;;;;;;;13.81;100.00;101882.63;5174130;28;20026;-66
2021/08/28 00:15:03;;;;;;;12.70;4.28;;;;;;;13.81;100.00;101887.06;5173033;28;20027;-66
2021/08/28 00:17:35;;;;;;;10.90;4.22;;;;;;;13.75;100.00;101877.00;5170978;28;20061;-66
2021/08/28 00:20:10;;;;;;;11.57;4.65;;;;;;;13.71;100.00;101870.31;5174358;28;20118;-66
2021/08/28 00:22:41;;;;;;;10.77;3.78;;;;;;;13.72;100.00;101874.66;5172289;28;20061;-66
2021/08/28 00:25:13;;;;;;;9.35;3.72;;;;;;;13.70;100.00;101882.66;5175424;28;20019;-66
2021/08/28 00:27:44;;;;;;;12.48;3.97;;;;;;;13.68;100.00;101878.50;5174056;28;20054;-66
2021/08/28 00:30:16;;;;;;;16.58;5.38;;;;;;;13.67;100.00;101871.53;5174013;28;20547;-66
2021/08/28 00:32:47;;;;;;;12.73;4.68;;;;;;;13.71;100.00;101879.06;5171676;28;20114;-66
2021/08/28 00:35:18;;;;;;;14.50;4.60;;;;;;;13.65;100.00;101876.09;5173468;28;20030;-66
2021/08/28 00:37:50;;;;;;;11.23;4.13;;;;;;;13.61;100.00;101878.97;5172830;28;20057;-66
2021/08/28 00:40:21;;;;;;;11.10;4.88;;;;;;;13.65;100.00;101878.75;5174075;28;20102;-66
2021/08/28 00:42:52;;;;;;;9.90;4.63;;;;;;;13.68;100.00;101873.22;5171351;28;20033;-66
2021/08/28 00:45:25;;;;;;;10.90;4.97;;;;;;;13.66;100.00;101875.97;5171892;28;20459;-66
2021/08/28 00:48:05;;;;;;;10.32;5.05;;;;;;;13.69;100.00;101874.91;5172070;28;20061;-66
2021/08/28 00:50:38;;;;;;;13.02;5.00;;;;;;;13.69;100.00;101874.91;5171810;28;20085;-66
2021/08/28 00:53:12;;;;;;;13.30;4.97;;;;;;;13.78;100.00;101889.94;5172914;28;20499;-66
2021/08/28 00:55:49;;;;;;;13.23;4.88;;;;;;;13.85;100.00;101881.41;5171694;28;20060;-66
2021/08/28 00:58:21;;;;;;;9.25;5.03;;;;;;;13.84;100.00;101885.00;5170655;28;20050;-66
2021/08/28 01:00:57;;;;;;;13.65;5.53;;;;;;;13.92;100.00;101876.47;5173022;28;20030;-66
2021/08/28 01:03:32;;;;;;;15.70;6.32;;;;;;;13.88;100.00;101881.16;5170699;28;20049;-66
2021/08/28 01:06:17;;;;;;;10.10;5.82;;;;;;;13.93;100.00;101877.31;5171978;28;20029;-66
2021/08/28 01:08:56;;;;;;;11.88;6.05;;;;;;;13.94;100.00;101881.59;5171778;28;20026;-66
2021/08/28 01:11:57;;;;;;;13.05;5.68;;;;;;;14.02;100.00;101881.81;5170659;28;20023;-66
2021/08/28 01:14:30;;;;;;;10.80;5.38;;;;;;;14.02;100.00;101881.81;5171923;28;20488;-66
2021/08/28 01:17:07;;;;;;;11.38;5.75;;;;;;;13.98;100.00;101878.63;5172329;28;20022;-66
2021/08/28 01:19:51;;;;;;;10.30;5.55;;;;;;;14.00;100.00;101881.94;5170586;28;20535;-66
2021/08/28 01:22:23;;;;;;;13.43;5.45;;;;;;;13.97;100.00;101879.56;5172388;28;20015;-66
2021/08/28 01:24:56;;;;;;;10.75;5.57;;;;;;;13.94;100.00;101878.97;5171045;28;20030;-66
2021/08/28 01:27:32;;;;;;;11.15;6.03;;;;;;;13.97;100.00;101881.34;5171276;28;20027;-66
2021/08/28 01:30:04;;;;;;;12.70;6.00;;;;;;;13.97;100.00;101869.00;5171706;28;20030;-66
2021/08/28 01:32:36;;;;;;;13.45;5.75;;;;;;;13.99;100.00;101871.53;5170370;28;20023;-66
2021/08/28 01:35:08;;;;;;;13.95;6.07;;;;;;;13.96;100.00;101863.88;5171521;28;20030;-66
2021/08/28 01:37:41;;;;;;;14.25;5.75;;;;;;;13.92;100.00;101865.09;5170561;28;20444;-66
2021/08/28 01:40:15;;;;;;;14.32;6.55;;;;;;;13.95;100.00;101856.94;5170315;28;20109;-66
2021/08/28 01:42:47;;;;;;;12.63;6.35;;;;;;;13.96;100.00;101869.16;5171691;28;20060;-66
2021/08/28 01:45:22;;;;;;;15.27;6.63;;;;;;;13.98;100.00;101859.31;5170416;28;20031;-66
2021/08/28 01:47:55;;;;;;;10.68;6.50;;;;;;;13.96;100.00;101872.63;5170356;28;20109;-66
2021/08/28 01:50:27;;;;;;;13.55;6.15;;;;;;;13.95;100.00;101870.13;5170318;28;20089;-66
2021/08/28 01:52:58;;;;;;;12.43;6.50;;;;;;;13.99;100.00;101874.19;5171491;28;20046;-66
2021/08/28 01:55:29;;;;;;;15.20;7.13;;;;;;;14.00;100.00;101878.47;5170786;28;20058;-66
2021/08/28 01:58:01;;;;;;;11.65;6.55;;;;;;;14.00;100.00;101875.84;5170853;28;20073;-66
2021/08/28 02:00:33;;;;;;;15.32;6.13;;;;;;;14.03;100.00;101873.78;5168674;28;20217;-66
2021/08/28 02:03:04;;;;;;;16.13;6.47;;;;;;;14.05;100.00;101881.56;5171207;28;20022;-66
2021/08/28 02:05:43;;;;;;;14.70;6.97;;;;;;;14.10;100.00;101887.28;5170684;28;20496;-66
2021/08/28 02:08:28;;;;;;;12.93;7.05;;;;;;;14.18;100.00;101878.75;5169582;28;20031;-66
2021/08/28 02:11:09;;;;;;;11.35;6.45;;;;;;;14.13;100.00;101873.88;5169265;28;20042;-66
2021/08/28 02:13:51;;;;;;;13.95;6.63;;;;;;;14.19;100.00;101872.50;5171073;28;20022;-66
2021/08/28 02:16:26;;;;;;;13.88;6.97;;;;;;;14.18;100.00;101874.31;5170805;28;20153;-66
2021/08/28 02:19:09;;;;;;;14.60;6.57;;;;;;;14.20;100.00;101869.72;5170714;28;20031;-66
2021/08/28 02:21:40;;;;;;;13.60;6.27;;;;;;;14.18;100.00;101874.31;5170869;28;20027;-66
2021/08/28 02:24:29;;;;;;;10.18;6.18;;;;;;;14.29;100.00;101873.41;5171064;28;20077;-66
2021/08/28 02:27:06;;;;;;;15.05;7.65;;;;;;;14.26;100.00;101873.66;5169648;28;20120;-66
2021/08/28 02:29:50;;;;;;;14.88;6.82;;;;;;;14.28;100.00;101867.31;5170449;28;20054;-66
2021/08/28 02:32:22;;;;;;;11.35;6.22;;;;;;;14.23;100.00;101864.22;5171853;28;20088;-66
2021/08/28 02:34:56;;;;;;;13.43;6.40;;;;;;;14.28;100.00;101863.81;5170145;28;20022;-66
2021/08/28 02:37:32;;;;;;;21.58;7.07;;;;;;;14.27;100.00;101857.72;5170997;28;20030;-66
2021/08/28 02:40:07;;;;;;;13.35;6.55;;;;;;;14.34;100.00;101868.56;5170766;28;20473;-66
2021/08/28 02:42:40;;;;;;;13.75;7.03;;;;;;;14.32;100.00;101867.91;5170931;28;20034;-66
2021/08/28 02:45:21;;;;;;;13.45;7.00;;;;;;;14.40;100.00;101865.44;5173052;28;20018;-66
2021/08/28 02:47:54;;;;;;;14.45;6.38;;;;;;;14.34;100.00;101858.03;5174420;28;20125;-66
2021/08/28 02:50:26;;;;;;;10.83;6.03;;;;;;;14.36;100.00;101858.75;5173817;28;20027;-66
2021/08/28 02:52:59;;;;;;;14.57;6.80;;;;;;;14.41;100.00;101863.63;5174690;28;20027;-66
2021/08/28 02:55:33;;;;;;;13.15;5.85;;;;;;;14.43;100.00;101862.50;5174505;28;20596;-66
2021/08/28 02:58:05;;;;;;;9.77;6.20;;;;;;;14.45;100.00;101865.03;5170117;28;20045;-65
2021/08/28 03:00:37;;;;;;;11.95;6.57;;;;;;;14.48;100.00;101862.97;5171623;28;20558;-65
2021/08/28 03:03:12;;;;;;;15.30;6.70;;;;;;;14.47;100.00;101853.41;5174844;28;20038;-65
2021/08/28 03:05:46;;;;;;;12.88;6.57;;;;;;;14.50;100.00;101853.16;5172520;28;20030;-65
2021/08/28 03:08:19;;;;;;;14.82;6.10;;;;;;;14.52;100.00;101845.13;5173605;28;20053;-65
2021/08/28 03:10:52;;;;;;;18.90;7.53;;;;;;;14.54;100.00;101838.75;5173915;28;20037;-65
2021/08/28 03:13:23;;;;;;;17.20;7.53;;;;;;;14.54;100.00;101845.81;5173752;28;20015;-65
2021/08/28 03:15:56;;;;;;;15.68;7.20;;;;;;;14.53;100.00;101844.97;5172295;28;20038;-65
2021/08/28 03:18:40;;;;;;;11.30;6.65;;;;;;;14.59;100.00;101844.47;5174589;28;20620;-65
2021/08/28 03:21:12;;;;;;;17.90;6.78;;;;;;;14.54;100.00;101844.00;5173141;28;20473;-65
2021/08/28 03:23:46;;;;;;;10.75;6.50;;;;;;;14.58;100.00;101848.09;5173154;28;20077;-65
2021/08/28 03:26:20;;;;;;;16.02;6.57;;;;;;;14.58;100.00;101848.09;5172795;28;20041;-65
2021/08/28 03:28:52;;;;;;;12.48;7.07;;;;;;;14.58;100.00;101847.22;5172110;28;20030;-65
2021/08/28 03:31:28;;;;;;;11.05;6.88;;;;;;;14.61;100.00;101844.31;5173642;28;20029;-65
2021/08/28 03:34:00;;;;;;;13.90;6.90;;;;;;;14.55;100.00;101844.88;5173606;28;20062;-65
2021/08/28 03:36:32;;;;;;;13.73;6.90;;;;;;;14.57;100.00;101843.75;5172646;28;20026;-65
2021/08/28 03:39:05;;;;;;;14.75;6.68;;;;;;;14.59;100.00;101841.84;5173770;28;20396;-65
2021/08/28 03:41:38;;;;;;;13.63;6.75;;;;;;;14.58;100.00;101836.66;5170636;28;20098;-65
2021/08/28 03:44:17;;;;;;;12.52;6.72;;;;;;;14.60;100.00;101840.84;5173487;28;20085;-65
2021/08/28 03:46:50;;;;;;;14.70;6.88;;;;;;;14.57;100.00;101848.19;5172849;28;20074;-65
2021/08/28 03:49:21;;;;;;;19.42;7.00;;;;;;;14.56;100.00;101843.91;5174159;28;20044;-65
2021/08/28 03:51:52;;;;;;;15.43;7.47;;;;;;;14.56;100.00;101847.38;5171989;28;20023;-65
2021/08/28 03:54:24;;;;;;;15.23;7.13;;;;;;;14.57;100.00;101856.94;5173587;28;20062;-65
2021/08/28 03:56:55;;;;;;;16.25;7.10;;;;;;;14.59;100.00;101852.38;5172160;28;20097;-65
2021/08/28 03:59:26;;;;;;;17.15;7.90;;;;;;;14.62;100.00;101851.25;5173390;28;20080;-65
2021/08/28 04:01:58;;;;;;;17.60;6.90;;;;;;;14.58;100.00;101845.44;5171152;28;20023;-65
2021/08/28 04:04:29;;;;;;;18.83;8.07;;;;;;;14.61;100.00;101844.31;5172147;28;20026;-65
2021/08/28 04:07:00;;;;;;;15.35;8.32;;;;;;;14.63;100.00;101845.03;5171145;28;20034;-65
2021/08/28 04:09:32;;;;;;;15.95;8.30;;;;;;;14.63;100.00;101847.69;5172616;28;20042;-65
2021/08/28 04:12:03;;;;;;;21.30;8.48;;;;;;;14.64;100.00;101849.34;5171995;28;20105;-65
2021/08/28 04:14:34;;;;;;;15.43;8.20;;;;;;;14.64;100.00;101843.25;5171645;28;20031;-65
2021/08/28 04:17:06;;;;;;;17.60;8.55;;;;;;;14.65;100.00;101848.38;5172151;28;20066;-65
2021/08/28 04:19:37;;;;;;;19.50;8.32;;;;;;;14.62;100.00;101838.06;5172694;28;20504;-65
2021/08/28 04:22:08;;;;;;;17.33;8.52;;;;;;;14.67;100.00;101843.81;5172542;28;20543;-65
2021/08/28 04:24:40;;;;;;;19.13;8.40;;;;;;;14.67;100.00;101843.81;5172477;28;20068;-65
2021/08/28 04:27:11;;;;;;;18.20;9.10;;;;;;;14.69;100.00;101841.84;5172498;28;20034;-65
2021/08/28 04:29:42;;;;;;;16.08;7.80;;;;;;;14.64;100.00;101836.16;5171444;28;20328;-65
2021/08/28 04:32:13;;;;;;;15.73;7.63;;;;;;;14.69;100.00;101844.50;5172554;28;20089;-65
2021/08/28 04:34:45;;;;;;;15.00;8.18;;;;;;;14.70;100.00;101840.06;5172667;28;20113;-65
2021/08/28 04:37:16;;;;;;;16.73;8.38;;;;;;;14.72;100.00;101846.03;5171736;28;20026;-65
2021/08/28 04:39:47;;;;;;;14.40;8.00;;;;;;;14.72;100.00;101844.22;5170836;28;20539;-65
2021/08/28 04:42:19;;;;;;;13.85;7.82;;;;;;;14.69;100.00;101847.13;5172556;28;20378;-65
2021/08/28 04:44:54;;;;;;;15.75;8.23;;;;;;;14.73;100.00;101851.19;5171010;28;20034;-65
2021/08/28 04:47:25;;;;;;;15.93;8.52;;;;;;;14.71;100.00;101847.84;5172238;28;20047;-65
2021/08/28 04:49:56;;;;;;;14.30;8.50;;;;;;;14.74;100.00;101850.22;5171629;28;20046;-65
2021/08/28 04:52:28;;;;;;;20.65;9.20;;;;;;;14.75;100.00;101841.34;5170091;28;20543;-65
2021/08/28 04:54:59;;;;;;;14.77;8.18;;;;;;;14.78;100.00;101849.00;5172717;28;20489;-65
2021/08/28 04:57:30;;;;;;;13.55;8.43;;;;;;;14.81;100.00;101854.00;5172513;28;20042;-65
2021/08/28 05:00:03;;;;;;;15.68;8.32;;;;;;;14.82;100.00;101846.94;5171757;28;20085;-65
2021/08/28 05:02:34;;;;;;;16.58;8.15;;;;;;;14.83;100.00;101851.22;5171345;28;20037;-65
2021/08/28 05:05:06;;;;;;;16.30;8.57;;;;;;;14.85;100.00;101846.66;5171800;28;20767;-65
2021/08/28 05:07:37;;;;;;;14.75;7.72;;;;;;;14.88;100.00;101848.19;5171148;28;20540;-65
2021/08/28 05:10:09;;;;;;;17.40;8.65;;;;;;;14.90;100.00;101851.53;5171238;28;20065;-65
2021/08/28 05:12:40;;;;;;;17.77;8.40;;;;;;;14.94;100.00;101850.31;5171492;28;20023;-65
2021/08/28 05:15:12;;;;;;;20.55;8.20;;;;;;;14.95;100.00;101849.31;5171252;28;20089;-65
2021/08/28 05:17:43;;;;;;;13.88;8.38;;;;;;;14.98;100.00;101847.25;5172363;28;20026;-65
2021/08/28 05:20:14;;;;;;;15.90;8.25;;;;;;;15.02;100.00;101840.72;5170943;28;20019;-65
2021/08/28 05:22:46;;;;;;;16.75;7.65;;;;;;;15.05;100.00;101856.31;5170818;28;20135;-65
2021/08/28 05:25:17;;;;;;;15.05;8.10;;;;;;;15.07;100.00;101854.34;5171592;28;20077;-65
2021/08/28 05:27:48;;;;;;;13.40;8.48;;;;;;;15.11;100.00;101846.16;5171322;28;20030;-65
2021/08/28 05:30:20;;;;;;;14.27;8.60;;;;;;;15.13;100.00;101841.59;5172059;28;20026;-65
2021/08/28 05:32:51;;;;;;;16.10;8.18;;;;;;;15.16;100.00;101851.91;5168573;28;20026;-65
2021/08/28 05:35:23;;;;;;;15.25;8.00;;;;;;;15.20;100.00;101855.94;5168099;28;20110;-65
2021/08/28 05:37:54;;;;;;;16.77;8.27;;;;;;;15.22;100.00;101856.63;5170975;28;20038;-65
2021/08/28 05:40:25;;;;;;;19.75;8.60;;;;;;;15.25;100.00;101851.06;5171110;28;20053;-65
2021/08/28 05:42:57;;;;;;;16.02;8.00;;;;;;;15.28;100.00;101864.00;5171559;28;20492;-65
2021/08/28 05:45:28;;;;;;;25.30;8.27;;;;;;;15.30;100.00;101862.03;5170073;28;20444;-65
2021/08/28 05:47:59;;;;;;;17.20;7.90;;;;;;;15.30;100.00;101872.59;5170513;28;20051;-65
2021/08/28 05:50:31;;;;;;;18.75;8.07;;;;;;;15.34;100.00;101866.06;5170685;28;20058;-65
2021/08/28 05:53:02;;;;;;;17.95;7.55;;;;;;;15.37;100.00;101867.63;5171093;28;20027;-65
2021/08/28 05:55:33;;;;;;;12.18;7.65;;;;;;;15.41;100.00;101871.66;5171051;28;20042;-65
2021/08/28 05:58:04;;;;;;;13.23;6.90;;;;;;;15.45;100.00;101873.06;5171382;28;20026;-65
2021/08/28 06:00:36;;;;;;;19.95;7.43;;;;;;;15.49;100.00;101875.31;5169178;28;20050;-65
2021/08/28 06:03:07;;;;;;;12.18;6.72;;;;;;;15.54;100.00;101872.25;5163347;28;20077;-65
2021/08/28 06:05:38;;;;;;;11.13;5.97;;;;;;;15.55;100.00;101876.56;5170014;28;20046;-65
2021/08/28 06:08:11;;;;;;;10.43;6.18;;;;;;;15.56;100.00;101880.84;5171137;28;20041;-65
2021/08/28 06:10:42;;;;;;;13.95;6.05;;;;;;;15.57;100.00;101882.53;5171022;28;20023;-65
2021/08/28 06:13:13;;;;;;;10.85;5.65;;;;;;;15.56;100.00;101880.84;5168267;28;20018;-65
2021/08/28 06:15:45;;;;;;;13.38;6.00;;;;;;;15.58;100.00;101877.13;5169601;28;20030;-65
2021/08/28 06:18:16;;;;;;;11.25;5.35;;;;;;;15.63;100.00;101883.78;5171565;28;20022;-65
2021/08/28 06:20:47;;;;;;;12.90;5.70;;;;;;;15.63;100.00;101878.50;5173648;28;20041;-66
2021/08/28 06:23:19;;;;;;;11.75;5.28;;;;;;;15.62;100.00;101884.78;5173865;28;20472;-65
2021/08/28 06:25:50;;;;;;;15.98;5.43;;;;;;;15.58;100.00;101878.91;5174937;28;20126;-66
2021/08/28 06:28:22;;;;;;;11.07;4.47;;;;;;;15.60;100.00;101879.59;5175273;28;20026;-66
2021/08/28 06:30:53;;;;;;;14.65;5.10;;;;;;;15.56;100.00;101891.41;5173510;28;20065;-65
2021/08/28 06:33:24;;;;;;;8.55;5.20;;;;;;;15.52;100.00;101875.00;5173833;28;20103;-65
2021/08/28 06:35:56;;;;;;;10.60;4.63;;;;;;;15.53;100.00;101881.13;5173468;28;20153;-65
2021/08/28 06:38:27;;;;;;;7.95;4.57;;;;;;;15.51;100.00;101880.44;5174536;28;20023;-66
2021/08/28 06:41:04;;;;;;;15.38;5.78;;;;;;;15.57;100.00;101883.38;5172688;28;20744;-66
2021/08/28 06:43:35;;;;;;;8.27;4.90;;;;;;;15.56;100.00;101881.69;5172469;28;20085;-66
2021/08/28 06:46:06;;;;;;;10.15;4.93;;;;;;;15.63;100.00;101887.25;5174194;28;20026;-66
2021/08/28 06:48:38;;;;;;;10.98;4.75;;;;;;;15.72;100.00;101882.97;5172928;28;20061;-66
2021/08/28 06:51:09;;;;;;;7.82;4.03;;;;;;;15.75;100.00;101883.53;5174294;28;20106;-66
2021/08/28 06:53:40;;;;;;;8.50;4.90;;;;;;;15.81;100.00;101882.16;5172957;28;20022;-65
2021/08/28 06:56:12;;;;;;;8.40;5.07;;;;;;;15.91;100.00;101887.44;5173684;28;20034;-65
2021/08/28 06:58:43;;;;;;;10.70;5.60;;;;;;;16.01;100.00;101881.16;5172090;28;20027;-65
2021/08/28 07:01:14;;;;;;;10.20;5.45;;;;;;;16.15;100.00;101879.91;5174804;28;20026;-65
2021/08/28 07:03:46;;;;;;;10.57;5.38;;;;;;;16.29;100.00;101876.00;5174489;28;20035;-65
2021/08/28 07:06:17;;;;;;;10.13;4.80;;;;;;;16.42;100.00;101887.09;5173511;28;20518;-65
2021/08/28 07:08:48;;;;;;;10.38;5.20;;;;;;;16.52;100.00;101887.09;5173665;28;20062;-67
2021/08/28 07:11:20;;;;;;;11.82;5.25;;;;;;;16.63;100.00;101886.06;5174548;28;20030;-67
2021/08/28 07:13:51;;;;;;;11.02;5.30;;;;;;;16.70;100.00;101890.63;5173354;28;20051;-65
2021/08/28 07:16:25;;;;;;;11.32;5.38;;;;;;;16.78;100.00;101880.22;5174563;28;20113;-65
2021/08/28 07:18:56;;;;;;;9.55;5.70;;;;;;;16.84;100.00;101883.25;5173955;28;20030;-65
2021/08/28 07:21:27;;;;;;;9.07;5.78;;;;;;;16.88;100.00;101897.84;5171812;28;20061;-65
2021/08/28 07:23:59;;;;;;;10.68;5.05;;;;;;;16.85;100.00;101885.72;5173663;28;20034;-65
2021/08/28 07:26:30;;;;;;;8.98;5.20;;;;;;;16.87;100.00;101890.91;5174320;28;20543;-67
2021/08/28 07:29:01;;;;;;;9.25;5.78;;;;;;;16.88;100.00;101893.38;5172241;28;20070;-67
2021/08/28 07:31:33;;;;;;;10.30;5.07;;;;;;;16.89;100.00;101891.56;5171134;28;20497;-66
2021/08/28 07:34:04;;;;;;;10.90;5.35;;;;;;;16.91;100.00;101902.88;5173329;28;20030;-66
2021/08/28 07:36:35;;;;;;;18.23;5.57;;;;;;;16.90;100.00;101893.25;5170289;28;20030;-66
2021/08/28 07:39:07;;;;;;;8.05;4.78;;;;;;;16.92;100.00;101888.63;5173006;28;20042;-67
2021/08/28 07:41:38;;;;;;;12.30;5.78;;;;;;;16.89;100.00;101891.56;5169014;28;20488;-67
2021/08/28 07:44:10;;;;;;;10.30;5.18;;;;;;;16.88;100.00;101900.50;5165503;28;20023;-67
2021/08/28 07:46:41;;;;;;;10.85;5.05;;;;;;;16.88;100.00;101896.03;5168217;28;20145;-67
2021/08/28 07:49:12;;;;;;;8.20;4.32;;;;;;;16.87;100.00;101898.84;5174100;28;20045;-67
2021/08/28 07:51:43;;;;;;;8.30;5.13;;;;;;;16.95;100.00;101896.28;5172214;28;20432;-67
2021/08/28 07:54:15;;;;;;;9.75;4.72;;;;;;;16.97;100.00;101900.47;5169395;28;20312;-67
2021/08/28 07:56:47;;;;;;;11.55;5.47;;;;;;;16.98;100.00;101896.00;5163643;28;20472;-67
2021/08/28 07:59:18;;;;;;;9.27;5.10;;;;;;;16.97;100.00;101905.78;5172977;28;20064;-67
2021/08/28 08:01:49;;;;;;;10.10;5.07;;;;;;;17.01;100.00;101914.25;5172575;28;20102;-67
2021/08/28 08:04:21;;;;;;;9.45;4.93;;;;;;;17.00;100.00;101918.69;5163150;28;20584;-67
2021/08/28 08:06:52;;;;;;;11.07;5.40;;;;;;;17.05;100.00;101918.28;5161197;28;20038;-67
2021/08/28 08:09:24;;;;;;;9.27;4.88;;;;;;;17.09;100.00;101918.81;5172314;28;20443;-67
2021/08/28 08:11:55;;;;;;;9.55;5.53;;;;;;;17.16;100.00;101914.56;5169328;28;20606;-67
2021/08/28 08:14:26;;;;;;;9.73;4.72;;;;;;;17.22;100.00;101914.00;5164567;28;20074;-67
2021/08/28 08:16:58;;;;;;;9.57;4.95;;;;;;;17.27;100.00;101907.28;5159817;28;20057;-68
2021/08/28 08:19:29;;;;;;;11.00;5.80;;;;;;;17.27;100.00;101917.03;5172336;28;20603;-67
2021/08/28 08:22:00;;;;;;;8.15;5.00;;;;;;;17.35;100.00;101919.78;5172028;28;20031;-67
2021/08/28 08:24:32;;;;;;;12.10;5.30;;;;;;;17.39;100.00;101917.69;5163201;28;20037;-68
2021/08/28 08:27:03;;;;;;;10.75;5.00;;;;;;;17.51;100.00;101919.97;5161806;28;20723;-67
2021/08/28 08:29:35;;;;;;;11.10;5.75;;;;;;;17.67;100.00;101919.28;5168273;28;20023;-67
2021/08/28 08:32:06;;;;;;;9.70;5.22;;;;;;;17.78;100.00;101920.09;5170229;28;20035;-67
2021/08/28 08:34:37;;;;;;;11.95;5.22;;;;;;;17.81;100.00;101915.34;5163667;28;20029;-67
2021/08/28 08:37:10;;;;;;;9.32;5.15;;;;;;;18.01;100.00;101917.81;5166641;28;20146;-67
2021/08/28 08:39:41;;;;;;;9.30;5.03;;;;;;;18.09;100.00;101918.72;5168664;28;20555;-67
2021/08/28 08:42:16;;;;;;;10.45;5.95;;;;;;;18.07;100.00;101920.72;5168971;28;20019;-67
2021/08/28 08:44:48;;;;;;;10.52;5.32;;;;;;;18.11;100.00;101922.06;5157360;28;20026;-68
2021/08/28 08:47:20;;;;;;;12.63;5.70;;;;;;;18.21;100.00;101924.63;5166399;28;20061;-67
2021/08/28 08:49:52;;;;;;;11.30;4.95;;;;;;;18.19;100.00;101924.78;5167695;28;20027;-68
2021/08/28 08:52:24;;;;;;;13.37;5.13;;;;;;;18.15;100.00;101933.19;5169307;28;20034;-68
2021/08/28 08:54:56;;;;;;;6.80;4.47;;;;;;;18.32;100.00;101926.19;5156304;28;20030;-68
2021/08/28 08:57:28;;;;;;;12.90;5.20;;;;;;;18.38;100.00;101917.63;5165762;28;20362;-68
2021/08/28 09:00:00;;;;;;;9.95;4.68;;;;;;;18.35;100.00;101931.19;5167453;28;20081;-68
2021/08/28 09:02:31;;;;;;;8.23;4.67;;;;;;;18.47;100.00;101919.34;5168941;28;20031;-68
2021/08/28 09:05:04;;;;;;;9.60;4.73;;;;;;;18.46;100.00;101926.47;5169222;28;20015;-69
2021/08/28 09:07:36;;;;;;;;;;;;;;;18.74;100.00;101921.03;5170513;28;20053;-67
2021/08/28 09:10:08;;;;;;;9.10;4.65;;;;;;;18.56;100.00;101914.91;5167520;28;19913;-69
2021/08/28 09:12:41;;;;;;;7.27;4.80;;;;;;;18.66;100.00;101924.44;5169653;28;20023;-68
2021/08/28 09:15:14;;;;;;;9.23;5.05;;;;;;;18.70;100.00;101920.50;5168427;28;20385;-68
2021/08/28 09:17:58;;;;;;;6.80;4.47;;;;;;;18.85;100.00;101923.41;5169413;28;20026;-68
2021/08/28 09:20:29;;;;;;;8.07;4.50;;;;;;;18.84;100.00;101927.06;5170842;28;20105;-67
2021/08/28 09:23:12;;;;;;;11.52;4.72;;;;;;;19.03;100.00;101923.34;5168522;28;20049;-68
2021/08/28 09:25:48;;;;;;;10.27;4.68;;;;;;;19.14;100.00;101920.41;5169681;28;20027;-68
2021/08/28 09:28:33;;;;;;;7.85;4.32;;;;;;;19.23;100.00;101912.44;5165234;28;20110;-68
2021/08/28 09:31:05;;;;;;;8.60;5.05;;;;;;;19.08;100.00;101918.38;5165883;28;20014;-68
2021/08/28 09:33:36;;;;;;;8.43;4.60;;;;;;;19.07;100.00;101927.34;5166625;28;20393;-69
2021/08/28 09:36:07;;;;;;;9.00;5.00;;;;;;;19.17;100.00;101924.56;5165844;28;20038;-68
2021/08/28 09:38:39;;;;;;;6.50;4.13;;;;;;;19.27;100.00;101927.06;5169375;28;20027;-67
2021/08/28 09:41:10;;;;;;;6.37;4.27;;;;;;;19.32;100.00;101930.94;5169241;28;20485;-68
2021/08/28 09:43:42;;;;;;;9.43;4.83;;;;;;;19.51;100.00;101926.31;5169645;28;20015;-68
2021/08/28 09:46:13;;;;;;;7.77;4.50;;;;;;;19.66;100.00;101925.56;5166959;28;20031;-69
2021/08/28 09:48:58;;;;;;;8.60;4.83;;;;;;;19.80;100.00;101920.59;5167874;28;20417;-67
2021/08/28 09:51:47;;;;;;;6.30;4.18;;;;;;;19.93;100.00;101936.91;5167088;28;20035;-67
2021/08/28 09:54:21;;;;;;;5.05;4.35;;;;;;;19.92;100.00;101930.72;5170214;28;20042;-68
2021/08/28 09:57:02;;;;;;;9.05;4.68;;;;;;;19.93;100.00;101926.28;5169040;28;20026;-67
2021/08/28 09:59:34;;;;;;;8.27;4.30;;;;;;;19.85;100.00;101929.75;5167769;28;20031;-68
2021/08/28 10:02:07;;;;;;;8.03;4.83;;;;;;;19.82;100.00;101924.75;5169657;28;20436;-68
2021/08/28 10:04:51;;;;;;;6.60;4.82;;;;;;;20.10;100.00;101935.91;5169105;28;20023;-68
2021/08/28 10:07:28;;;;;;;6.90;4.05;;;;;;;20.27;100.00;101933.25;5169481;28;20208;-69
2021/08/28 10:10:02;;;;;;;7.20;4.68;;;;;;;20.25;100.00;101935.25;5166921;28;20030;-69
2021/08/28 10:12:35;;;;;;;6.80;4.38;;;;;;;20.29;100.00;101933.91;5165496;28;20418;-68
2021/08/28 10:15:08;;;;;;;7.55;4.55;;;;;;;20.32;100.00;101936.25;5166518;28;20416;-68
2021/08/28 10:17:41;;;;;;;;;;;;;;;20.59;100.00;101932.41;5166758;28;20045;-69
2021/08/28 10:20:12;;;;;;;6.75;4.30;;;;;;;20.20;100.00;101937.59;5168656;28;19964;-68
2021/08/28 10:22:47;;;;;;;6.60;4.00;;;;;;;20.18;100.00;101937.72;5153994;28;20145;-68
2021/08/28 10:25:21;;;;;;;7.25;4.45;;;;;;;20.30;100.00;101933.72;5168642;28;20397;-68
2021/08/28 10:27:54;;;;;;;8.40;4.47;;;;;;;20.26;100.00;101931.56;5168509;28;20110;-68
2021/08/28 10:30:25;;;;;;;6.15;4.32;;;;;;;20.17;100.00;101938.72;5167970;28;20026;-68
2021/08/28 10:32:57;;;;;;;6.50;3.90;;;;;;;20.26;100.00;101935.06;5164814;28;20031;-68
2021/08/28 10:35:28;;;;;;;8.57;5.07;;;;;;;20.40;100.00;101933.56;5164166;28;20031;-68
2021/08/28 10:38:01;;;;;;;7.10;4.77;;;;;;;20.52;100.00;101932.25;5159455;28;20037;-68
2021/08/28 10:40:33;;;;;;;;;;;;;;;20.94;100.00;101936.47;5164855;28;20031;-68
2021/08/28 10:43:08;;;;;;;8.23;4.43;;;;;;;21.00;100.00;101938.44;5167450;28;20406;-68
2021/08/28 10:45:40;;;;;;;13.63;4.70;;;;;;;21.07;100.00;101931.44;5166813;28;20035;-68
2021/08/28 10:48:14;;;;;;;7.97;4.63;;;;;;;21.40;100.00;101935.78;5168580;28;20047;-68
2021/08/28 10:50:51;;;;;;;8.90;4.05;;;;;;;21.57;100.00;101932.88;5169066;28;20027;-68
2021/08/28 10:53:24;;;;;;;7.95;4.55;;;;;;;21.56;100.00;101936.56;5167956;28;20037;-68
2021/08/28 10:55:56;;;;;;;;;;;;;;;21.87;100.00;101933.00;5169623;28;20054;-68
2021/08/28 10:58:28;;;;;;;7.07;4.72;;;;;;;21.36;99.50;101927.31;5168214;28;19918;-68
2021/08/28 11:00:59;;;;;;;7.83;4.80;;;;;;;21.27;99.43;101931.84;5165739;28;20041;-68
2021/08/28 11:03:35;;;;;;;6.47;3.90;;;;;;;21.15;98.51;101933.22;5166987;28;20445;-68
2021/08/28 11:06:15;;;;;;;5.05;3.88;;;;;;;21.21;99.79;101921.84;5171422;28;20063;-68
2021/08/28 11:08:56;;;;;;;7.20;4.43;;;;;;;21.21;100.00;101923.69;5158910;28;20030;-68
2021/08/28 11:11:38;;;;;;;9.55;4.85;;;;;;;21.35;100.00;101923.81;5171031;28;20051;-68
2021/08/28 11:14:12;;;;;;;8.38;4.28;;;;;;;21.46;100.00;101919.94;5174356;28;20025;-68
2021/08/28 11:16:43;;;;;;;7.63;4.97;;;;;;;21.67;100.00;101926.47;5171461;28;20658;-68
2021/08/28 11:19:24;;;;;;;6.30;5.03;;;;;;;21.80;100.00;101932.06;5172514;28;20125;-69
2021/08/28 11:21:55;;;;;;;7.28;4.50;;;;;;;21.61;98.85;101928.03;5172808;28;20030;-68
2021/08/28 11:24:28;;;;;;;9.30;4.77;;;;;;;21.69;99.42;101921.81;5170581;28;20029;-69
2021/08/28 11:27:04;;;;;;;7.78;5.15;;;;;;;21.74;100.00;101927.41;5174063;28;20580;-68
2021/08/28 11:29:41;;;;;;;7.78;5.18;;;;;;;21.77;100.00;101927.06;5172926;28;20050;-68
2021/08/28 11:32:14;;;;;;;7.13;4.65;;;;;;;21.50;97.75;101929.25;5173503;28;20037;-68
2021/08/28 11:34:57;;;;;;;6.82;4.68;;;;;;;21.50;100.00;101931.91;5174176;28;20019;-69
2021/08/28 11:37:29;;;;;;;;;;;;;;;21.86;100.00;101918.03;5173529;28;20066;-69
2021/08/28 11:40:27;;;;;;;7.47;4.45;;;;;;;21.71;100.00;101922.47;5172671;28;19918;-68
2021/08/28 11:42:59;;;;;;;9.88;5.60;;;;;;;21.71;100.00;101917.97;5171995;28;20027;-68